createdAt,value
2023-11-08T00:01:13.749Z,8.57
2023-11-08T00:03:41.999Z,8.54
2023-11-08T00:06:10.198Z,8.55
2023-11-08T00:08:37.670Z,8.57
2023-11-08T00:11:05.224Z,8.57
2023-11-08T00:13:32.459Z,8.58
2023-11-08T00:16:00.356Z,8.58
2023-11-08T00:18:28.145Z,8.57
2023-11-08T00:20:55.339Z,8.60
2023-11-08T00:23:22.482Z,8.61
2023-11-08T00:25:49.570Z,8.62
2023-11-08T00:28:17.415Z,8.60
2023-11-08T00:30:44.952Z,8.59
2023-11-08T00:33:12.945Z,8.60
2023-11-08T00:35:40.461Z,8.64
2023-11-08T00:38:07.783Z,8.63
2023-11-08T00:40:34.830Z,8.63
2023-11-08T00:43:02.144Z,8.62
2023-11-08T00:45:29.572Z,8.61
2023-11-08T00:47:56.797Z,8.57
2023-11-08T00:50:24.048Z,8.56
2023-11-08T00:52:53.761Z,8.56
2023-11-08T00:55:20.951Z,8.48
2023-11-08T00:57:48.117Z,8.45
2023-11-08T01:00:15.804Z,8.46
2023-11-08T01:02:44.754Z,8.47
2023-11-08T01:05:12.795Z,8.43
2023-11-08T01:07:39.945Z,8.42
2023-11-08T01:10:08.471Z,8.38
2023-11-08T01:12:35.830Z,8.36
2023-11-08T01:15:03.071Z,8.33
2023-11-08T01:17:32.012Z,8.31
2023-11-08T01:19:59.131Z,8.31
2023-11-08T01:22:26.370Z,8.31
2023-11-08T01:24:53.465Z,8.28
2023-11-08T01:27:20.624Z,8.30
2023-11-08T01:29:47.843Z,8.30
2023-11-08T01:32:15.020Z,8.31
2023-11-08T01:34:42.507Z,8.29
2023-11-08T01:37:11.058Z,8.29
2023-11-08T01:39:38.211Z,8.30
2023-11-08T01:42:05.606Z,8.29
2023-11-08T01:44:32.712Z,8.30
2023-11-08T01:47:00.565Z,8.35
2023-11-08T01:49:28.705Z,8.37
2023-11-08T01:51:57.112Z,8.40
2023-11-08T01:54:27.541Z,8.41
2023-11-08T01:56:56.351Z,8.43
2023-11-08T01:59:25.739Z,8.47
2023-11-08T02:01:53.008Z,8.42
2023-11-08T02:04:20.903Z,8.40
2023-11-08T02:06:48.222Z,8.34
2023-11-08T02:09:16.084Z,8.31
2023-11-08T02:11:43.261Z,8.33
2023-11-08T02:14:10.446Z,8.33
2023-11-08T02:16:37.604Z,8.33
2023-11-08T02:19:06.698Z,8.29
2023-11-08T02:21:35.010Z,8.29
2023-11-08T02:24:25.274Z,8.27
2023-11-08T02:26:52.438Z,8.27
2023-11-08T02:29:21.488Z,8.29
2023-11-08T02:31:52.035Z,8.31
2023-11-08T02:34:19.636Z,8.32
2023-11-08T02:36:47.023Z,8.32
2023-11-08T02:39:14.205Z,8.32
2023-11-08T02:41:41.293Z,8.29
2023-11-08T02:44:09.968Z,8.26
2023-11-08T02:46:37.099Z,8.31
2023-11-08T02:49:05.218Z,8.29
2023-11-08T02:51:32.447Z,8.24
2023-11-08T02:54:00.437Z,8.18
2023-11-08T02:56:27.718Z,8.13
2023-11-08T02:58:55.387Z,8.14
2023-11-08T03:01:23.258Z,8.14
2023-11-08T03:03:53.303Z,8.16
2023-11-08T03:06:21.065Z,8.14
2023-11-08T03:08:48.638Z,8.13
2023-11-08T03:11:16.226Z,8.12
2023-11-08T03:13:43.483Z,8.10
2023-11-08T03:16:11.005Z,8.10
2023-11-08T03:18:38.316Z,8.12
2023-11-08T03:21:05.707Z,8.09
2023-11-08T03:23:32.858Z,8.07
2023-11-08T03:25:59.939Z,8.11
2023-11-08T03:28:26.999Z,8.14
2023-11-08T03:30:55.087Z,8.12
2023-11-08T03:33:22.502Z,8.08
2023-11-08T03:35:49.789Z,8.06
2023-11-08T03:38:17.398Z,8.05
2023-11-08T03:40:44.525Z,8.03
2023-11-08T03:43:12.684Z,8.01
2023-11-08T03:45:39.783Z,8.00
2023-11-08T03:48:07.091Z,7.98
2023-11-08T03:50:34.321Z,7.97
2023-11-08T03:53:01.419Z,8.01
2023-11-08T03:55:28.570Z,8.01
2023-11-08T03:57:56.895Z,8.00
2023-11-08T04:00:26.017Z,8.02
2023-11-08T04:02:53.915Z,8.02
2023-11-08T04:05:21.201Z,7.99
2023-11-08T04:07:48.438Z,8.00
2023-11-08T04:10:16.393Z,7.95
2023-11-08T04:12:44.008Z,7.93
2023-11-08T04:15:12.174Z,7.96
2023-11-08T04:17:39.607Z,7.98
2023-11-08T04:20:13.885Z,7.96
2023-11-08T04:22:42.867Z,7.92
2023-11-08T04:25:11.989Z,7.91
2023-11-08T04:27:39.771Z,7.92
2023-11-08T04:30:07.516Z,7.88
2023-11-08T04:32:34.701Z,7.91
2023-11-08T04:35:02.816Z,7.88
2023-11-08T04:37:31.729Z,7.88
2023-11-08T04:39:58.941Z,7.86
2023-11-08T04:42:26.692Z,7.83
2023-11-08T04:44:53.809Z,7.78
2023-11-08T04:47:22.202Z,7.78
2023-11-08T04:49:50.009Z,7.75
2023-11-08T04:52:18.490Z,7.71
2023-11-08T04:54:54.030Z,7.70
2023-11-08T04:57:22.673Z,7.74
2023-11-08T04:59:50.766Z,7.77
2023-11-08T05:02:20.338Z,7.78
2023-11-08T05:04:50.848Z,7.75
2023-11-08T05:07:21.595Z,7.70
2023-11-08T05:09:50.200Z,7.68
2023-11-08T05:12:19.134Z,7.71
2023-11-08T05:14:47.299Z,7.69
2023-11-08T05:17:18.135Z,7.67
2023-11-08T05:19:45.798Z,7.64
2023-11-08T05:22:13.443Z,7.66
2023-11-08T05:24:40.830Z,7.70
2023-11-08T05:27:09.225Z,7.70
2023-11-08T05:29:36.930Z,7.73
2023-11-08T05:32:04.311Z,7.75
2023-11-08T05:34:31.491Z,7.68
2023-11-08T05:36:59.223Z,7.65
2023-11-08T05:39:28.905Z,7.66
2023-11-08T05:41:56.098Z,7.68
2023-11-08T05:44:23.317Z,7.67
2023-11-08T05:46:50.813Z,7.65
2023-11-08T05:49:18.219Z,7.63
2023-11-08T05:51:45.389Z,7.62
2023-11-08T05:54:12.510Z,7.63
2023-11-08T05:56:39.633Z,7.61
2023-11-08T05:59:07.699Z,7.62
2023-11-08T06:01:35.005Z,7.62
2023-11-08T06:04:02.124Z,7.63
2023-11-08T06:06:29.454Z,7.62
2023-11-08T06:08:56.621Z,7.59
2023-11-08T06:11:23.735Z,7.60
2023-11-08T06:13:50.818Z,7.63
2023-11-08T06:16:18.007Z,7.63
2023-11-08T06:18:45.236Z,7.63
2023-11-08T06:21:15.922Z,7.65
2023-11-08T06:23:45.333Z,7.65
2023-11-08T06:26:16.325Z,7.65
2023-11-08T06:28:43.907Z,7.63
2023-11-08T06:31:10.959Z,7.64
2023-11-08T06:33:40.080Z,7.62
2023-11-08T06:36:07.478Z,7.61
2023-11-08T06:38:35.112Z,7.61
2023-11-08T06:41:02.267Z,7.58
2023-11-08T06:43:29.442Z,7.55
2023-11-08T06:45:56.675Z,7.50
2023-11-08T06:48:23.877Z,7.50
2023-11-08T06:50:50.988Z,7.48
2023-11-08T06:53:21.338Z,7.48
2023-11-08T06:55:48.594Z,7.50
2023-11-08T06:58:15.738Z,7.48
2023-11-08T07:00:44.442Z,7.45
2023-11-08T07:03:11.743Z,7.46
2023-11-08T07:05:39.624Z,7.46
2023-11-08T07:08:09.551Z,7.46
2023-11-08T07:10:36.929Z,7.47
2023-11-08T07:13:04.066Z,7.46
2023-11-08T07:15:33.338Z,7.46
2023-11-08T07:18:00.888Z,7.48
2023-11-08T07:20:27.973Z,7.48
2023-11-08T07:22:57.090Z,7.49
2023-11-08T07:25:24.296Z,7.53
2023-11-08T07:27:52.416Z,7.54
2023-11-08T07:30:19.613Z,7.52
2023-11-08T07:32:47.581Z,7.50
2023-11-08T07:35:15.127Z,7.48
2023-11-08T07:37:42.494Z,7.52
2023-11-08T07:40:13.925Z,7.53
2023-11-08T07:42:42.062Z,7.51
2023-11-08T07:45:10.292Z,7.52
2023-11-08T07:47:37.467Z,7.53
2023-11-08T07:50:06.255Z,7.55
2023-11-08T07:52:36.041Z,7.57
2023-11-08T07:55:03.253Z,7.63
2023-11-08T07:57:30.565Z,7.65
2023-11-08T07:59:57.729Z,7.71
2023-11-08T08:02:24.941Z,7.70
2023-11-08T08:04:52.123Z,7.75
2023-11-08T08:07:19.298Z,7.82
2023-11-08T08:09:46.480Z,7.85
2023-11-08T08:12:14.378Z,7.87
2023-11-08T08:14:41.873Z,7.91
2023-11-08T08:17:09.928Z,7.94
2023-11-08T08:19:37.477Z,8.00
2023-11-08T08:22:05.734Z,8.12
2023-11-08T08:24:33.202Z,8.31
2023-11-08T08:27:00.957Z,8.71
2023-11-08T08:29:29.723Z,9.54
2023-11-08T08:31:56.916Z,10.28
2023-11-08T08:34:30.831Z,10.44
2023-11-08T08:36:59.084Z,10.15
2023-11-08T08:39:29.848Z,9.86
2023-11-08T08:41:58.026Z,9.64
2023-11-08T08:44:26.407Z,9.58
2023-11-08T08:46:53.551Z,9.51
2023-11-08T08:49:22.263Z,9.36
2023-11-08T08:51:51.361Z,9.31
2023-11-08T08:54:22.924Z,9.61
2023-11-08T08:56:50.214Z,9.94
2023-11-08T08:59:17.527Z,9.97
2023-11-08T09:01:45.066Z,9.99
2023-11-08T09:04:12.365Z,10.08
2023-11-08T09:06:40.441Z,10.30
2023-11-08T09:09:13.664Z,10.69
2023-11-08T09:11:44.152Z,11.30
2023-11-08T09:14:11.473Z,11.38
2023-11-08T09:16:40.050Z,11.10
2023-11-08T09:19:09.912Z,10.79
2023-11-08T09:21:38.119Z,10.62
2023-11-08T09:24:08.229Z,10.41
2023-11-08T09:26:36.852Z,10.23
2023-11-08T09:29:04.579Z,10.19
2023-11-08T09:31:31.752Z,10.14
2023-11-08T09:33:58.973Z,10.06
2023-11-08T09:36:27.150Z,9.97
2023-11-08T09:38:55.055Z,9.95
2023-11-08T09:41:25.529Z,9.93
2023-11-08T09:43:53.012Z,9.95
2023-11-08T09:46:20.654Z,9.95
2023-11-08T09:48:51.082Z,9.95
2023-11-08T09:51:18.367Z,9.94
2023-11-08T09:53:47.234Z,9.88
2023-11-08T09:56:14.996Z,9.82
2023-11-08T09:58:45.695Z,9.77
2023-11-08T10:01:19.581Z,9.69
2023-11-08T10:03:48.118Z,9.64
2023-11-08T10:06:16.206Z,9.62
2023-11-08T10:08:43.519Z,9.64
2023-11-08T10:11:18.464Z,9.59
2023-11-08T10:13:51.258Z,9.61
2023-11-08T10:16:18.890Z,9.64
2023-11-08T10:19:36.358Z,9.67
2023-11-08T10:21:50.366Z,9.68
2023-11-08T10:24:19.033Z,9.69
2023-11-08T10:26:48.033Z,9.67
2023-11-08T10:29:15.762Z,9.70
2023-11-08T10:31:43.924Z,9.69
2023-11-08T10:34:17.383Z,9.69
2023-11-08T10:36:44.549Z,9.70
2023-11-08T10:39:15.757Z,9.69
2023-11-08T10:41:47.378Z,9.69
2023-11-08T10:44:24.394Z,9.69
2023-11-08T10:46:59.505Z,9.71
2023-11-08T10:49:27.364Z,9.73
2023-11-08T10:51:59.221Z,9.80
2023-11-08T10:54:26.523Z,9.85
2023-11-08T10:56:56.453Z,9.87
2023-11-08T10:59:25.172Z,9.96
2023-11-08T11:01:52.798Z,10.01
2023-11-08T11:04:22.924Z,10.07
2023-11-08T11:06:51.819Z,10.12
2023-11-08T11:09:19.554Z,10.16
2023-11-08T11:11:54.425Z,10.16
2023-11-08T11:14:43.358Z,10.16
2023-11-08T11:17:20.714Z,10.19
2023-11-08T11:19:50.835Z,10.24
2023-11-08T11:22:19.920Z,10.25
2023-11-08T11:24:48.087Z,10.25
2023-11-08T11:27:33.750Z,10.26
2023-11-08T11:30:16.214Z,10.28
2023-11-08T11:32:49.457Z,10.27
2023-11-08T11:35:51.762Z,10.30
2023-11-08T11:38:26.404Z,10.35
2023-11-08T11:41:20.305Z,10.40
2023-11-08T11:43:47.987Z,10.42
2023-11-08T11:46:20.390Z,10.43
2023-11-08T11:48:47.979Z,10.41
2023-11-08T11:51:16.749Z,10.36
2023-11-08T11:53:44.867Z,10.35
2023-11-08T11:56:12.348Z,10.37
2023-11-08T11:58:40.439Z,10.40
2023-11-08T12:01:08.523Z,10.46
2023-11-08T12:03:38.333Z,10.48
2023-11-08T12:06:06.213Z,10.51
2023-11-08T12:08:34.827Z,10.54
2023-11-08T12:11:20.255Z,10.53
2023-11-08T12:13:54.946Z,10.51
2023-11-08T12:16:22.496Z,10.48
2023-11-08T12:18:52.910Z,10.46
2023-11-08T12:21:20.511Z,10.44
2023-11-08T12:23:50.459Z,10.42
2023-11-08T12:26:18.285Z,10.39
2023-11-08T12:28:47.074Z,10.38
2023-11-08T12:31:19.333Z,10.39
2023-11-08T12:33:47.321Z,10.39
2023-11-08T12:36:14.732Z,10.36
2023-11-08T12:38:42.043Z,10.35
2023-11-08T12:41:09.686Z,10.35
2023-11-08T12:43:59.038Z,10.35
2023-11-08T12:46:37.903Z,10.34
2023-11-08T12:49:18.356Z,10.33
2023-11-08T12:51:46.596Z,10.30
2023-11-08T12:54:20.920Z,10.31
2023-11-08T12:56:49.036Z,10.30
2023-11-08T12:59:18.884Z,10.30
2023-11-08T13:02:09.280Z,10.28
2023-11-08T13:04:36.637Z,10.28
2023-11-08T13:07:04.038Z,10.26
2023-11-08T13:09:34.068Z,10.25
2023-11-08T13:12:01.287Z,10.25
2023-11-08T13:14:28.424Z,10.25
2023-11-08T13:16:55.545Z,10.23
2023-11-08T13:19:22.941Z,10.20
2023-11-08T13:21:50.495Z,10.19
2023-11-08T13:24:17.776Z,10.22
2023-11-08T13:26:45.018Z,10.25
2023-11-08T13:29:12.389Z,10.26
2023-11-08T13:31:39.529Z,10.27
2023-11-08T13:34:09.976Z,10.28
2023-11-08T13:36:37.456Z,10.26
2023-11-08T13:39:06.586Z,10.24
2023-11-08T13:41:33.729Z,10.23
2023-11-08T13:44:00.941Z,10.23
2023-11-08T13:46:28.071Z,10.22
2023-11-08T13:48:55.473Z,10.15
2023-11-08T13:51:22.851Z,10.14
2023-11-08T13:53:50.156Z,10.11
2023-11-08T13:56:17.376Z,10.07
2023-11-08T13:58:49.224Z,10.02
2023-11-08T14:01:17.931Z,9.98
2023-11-08T14:03:46.287Z,9.95
2023-11-08T14:06:14.220Z,9.93
2023-11-08T14:08:41.907Z,9.89
2023-11-08T14:11:09.513Z,9.88
2023-11-08T14:13:36.886Z,9.88
2023-11-08T14:16:06.484Z,9.88
2023-11-08T14:18:33.866Z,9.88
2023-11-08T14:21:01.110Z,9.88
2023-11-08T14:23:28.717Z,9.86
2023-11-08T14:25:55.872Z,9.84
2023-11-08T14:28:23.029Z,9.83
2023-11-08T14:30:51.793Z,9.81
2023-11-08T14:33:19.155Z,9.79
2023-11-08T14:35:46.457Z,9.78
2023-11-08T14:38:13.968Z,9.76
2023-11-08T14:40:42.143Z,9.77
2023-11-08T14:43:10.756Z,9.76
2023-11-08T14:45:38.220Z,9.75
2023-11-08T14:48:06.459Z,9.72
2023-11-08T14:50:33.729Z,9.67
2023-11-08T14:53:00.860Z,9.67
2023-11-08T14:55:28.209Z,9.68
2023-11-08T14:57:55.423Z,9.69
2023-11-08T15:00:24.450Z,9.68
2023-11-08T15:02:54.022Z,9.64
2023-11-08T15:05:21.617Z,9.59
2023-11-08T15:09:47.249Z,9.53
2023-11-08T15:10:38.277Z,9.45
2023-11-08T15:13:05.662Z,9.36
2023-11-08T15:15:33.509Z,9.29
2023-11-08T15:18:00.860Z,9.23
2023-11-08T15:20:28.125Z,9.19
2023-11-08T15:22:57.989Z,9.17
2023-11-08T15:25:25.577Z,9.19
2023-11-08T15:27:54.136Z,9.19
2023-11-08T15:30:21.590Z,9.20
2023-11-08T15:32:48.841Z,9.20
2023-11-08T15:35:16.308Z,9.17
2023-11-08T15:37:43.603Z,9.15
2023-11-08T15:40:12.779Z,9.06
2023-11-08T15:42:40.050Z,9.00
2023-11-08T15:45:08.554Z,8.93
2023-11-08T15:47:35.821Z,8.89
2023-11-08T15:50:03.071Z,8.86
2023-11-08T15:52:30.320Z,8.80
2023-11-08T15:54:57.702Z,8.73
2023-11-08T15:57:27.365Z,8.67
2023-11-08T15:59:55.696Z,8.62
2023-11-08T16:02:23.526Z,8.62
2023-11-08T16:04:51.122Z,8.60
2023-11-08T16:07:18.799Z,8.60
2023-11-08T16:09:46.388Z,8.61
2023-11-08T16:12:13.664Z,8.62
2023-11-08T16:14:40.914Z,8.68
2023-11-08T16:17:08.586Z,8.69
2023-11-08T16:19:36.078Z,8.70
2023-11-08T16:22:03.522Z,8.70
2023-11-08T16:24:30.672Z,8.75
2023-11-08T16:26:57.829Z,8.77
2023-11-08T16:29:50.594Z,8.76
2023-11-08T16:32:34.823Z,8.76
2023-11-08T16:35:01.337Z,8.70
2023-11-08T16:37:28.646Z,8.66
2023-11-08T16:39:56.012Z,8.63
2023-11-08T16:42:23.537Z,8.64
2023-11-08T16:44:50.979Z,8.66
2023-11-08T16:47:18.197Z,8.66
2023-11-08T16:49:51.940Z,8.66
2023-11-08T16:52:19.464Z,8.67
2023-11-08T16:54:46.646Z,8.69
2023-11-08T16:57:13.764Z,8.71
2023-11-08T16:59:40.890Z,8.76
2023-11-08T17:02:08.097Z,8.78
2023-11-08T17:04:39.215Z,8.85
2023-11-08T17:07:06.980Z,8.87
2023-11-08T17:09:38.793Z,8.87
2023-11-08T17:12:09.855Z,8.86
2023-11-08T17:14:37.993Z,8.85
2023-11-08T17:17:05.591Z,8.84
2023-11-08T17:19:32.816Z,8.82
2023-11-08T17:22:01.187Z,8.83
2023-11-08T17:24:28.546Z,8.84
2023-11-08T17:26:56.194Z,8.86
2023-11-08T17:29:32.539Z,8.85
2023-11-08T17:32:00.365Z,8.87
2023-11-08T17:34:27.724Z,8.88
2023-11-08T17:36:54.984Z,8.87
2023-11-08T17:39:26.351Z,8.91
2023-11-08T17:41:53.651Z,8.94
2023-11-08T17:44:21.291Z,8.95
2023-11-08T17:46:48.497Z,8.99
2023-11-08T17:49:16.266Z,9.02
2023-11-08T17:51:43.573Z,9.03
2023-11-08T17:54:11.484Z,9.08
2023-11-08T17:56:39.245Z,9.09
2023-11-08T17:59:06.397Z,9.10
2023-11-08T18:01:34.705Z,9.08
2023-11-08T18:04:02.017Z,9.10
2023-11-08T18:06:29.187Z,9.11
2023-11-08T18:08:56.439Z,9.13
2023-11-08T18:11:23.579Z,9.14
2023-11-08T18:13:51.236Z,9.15
2023-11-08T18:16:18.880Z,9.18
2023-11-08T18:18:46.222Z,9.20
2023-11-08T18:21:16.393Z,9.24
2023-11-08T18:23:44.411Z,9.26
2023-11-08T18:26:11.662Z,9.32
2023-11-08T18:28:38.779Z,9.31
2023-11-08T18:31:06.012Z,9.31
2023-11-08T18:33:33.266Z,9.31
2023-11-08T18:36:00.336Z,9.30
2023-11-08T18:38:30.099Z,9.30
2023-11-08T18:40:58.772Z,9.30
2023-11-08T18:43:27.476Z,9.32
2023-11-08T18:45:57.475Z,9.33
2023-11-08T18:48:26.478Z,9.35
2023-11-08T18:50:54.418Z,9.36
2023-11-08T18:53:21.790Z,9.39
2023-11-08T18:55:49.178Z,9.41
2023-11-08T18:58:16.484Z,9.41
2023-11-08T19:00:43.688Z,9.44
2023-11-08T19:03:10.933Z,9.44
2023-11-08T19:05:38.165Z,9.45
2023-11-08T19:08:05.525Z,9.45
2023-11-08T19:10:33.236Z,9.46
2023-11-08T19:13:00.434Z,9.48
2023-11-08T19:15:27.661Z,9.49
2023-11-08T19:17:54.934Z,9.51
2023-11-08T19:20:22.230Z,9.53
2023-11-08T19:22:49.417Z,9.57
2023-11-08T19:25:18.240Z,9.61
2023-11-08T19:27:46.697Z,9.63
2023-11-08T19:30:13.968Z,9.63
2023-11-08T19:32:41.169Z,9.66
2023-11-08T19:35:10.288Z,9.68
2023-11-08T19:37:38.429Z,9.69
2023-11-08T19:40:09.775Z,9.71
2023-11-08T19:42:37.551Z,9.71
2023-11-08T19:45:06.345Z,9.70
2023-11-08T19:47:33.551Z,9.72
2023-11-08T19:50:00.839Z,9.73
2023-11-08T19:52:28.117Z,9.75
2023-11-08T19:54:55.270Z,9.75
2023-11-08T19:57:24.109Z,9.73
2023-11-08T19:59:55.218Z,9.72
2023-11-08T20:02:22.626Z,9.71
2023-11-08T20:04:49.933Z,9.71
2023-11-08T20:07:18.087Z,9.69
2023-11-08T20:09:45.265Z,9.67
2023-11-08T20:12:12.704Z,9.68
2023-11-08T20:14:39.873Z,9.68
2023-11-08T20:17:07.271Z,9.68
2023-11-08T20:19:34.926Z,9.72
2023-11-08T20:22:02.179Z,9.69
2023-11-08T20:24:29.378Z,9.69
2023-11-08T20:26:56.689Z,9.69
2023-11-08T20:29:23.849Z,9.67
2023-11-08T20:31:51.005Z,9.70
2023-11-08T20:34:19.654Z,9.71
2023-11-08T20:36:47.023Z,9.75
2023-11-08T20:39:14.213Z,9.78
2023-11-08T20:41:43.812Z,9.78
2023-11-08T20:44:11.005Z,9.78
2023-11-08T20:46:38.225Z,9.76
2023-11-08T20:49:06.415Z,9.76
2023-11-08T20:51:33.791Z,9.78
2023-11-08T20:54:01.234Z,9.78
2023-11-08T20:56:28.610Z,9.77
2023-11-08T20:58:55.838Z,9.77
2023-11-08T21:01:23.180Z,9.76
2023-11-08T21:03:50.493Z,9.76
2023-11-08T21:06:18.882Z,9.77
2023-11-08T21:08:46.082Z,9.79
2023-11-08T21:11:13.740Z,9.78
2023-11-08T21:13:42.149Z,9.80
2023-11-08T21:16:10.020Z,9.82
2023-11-08T21:18:38.399Z,9.84
2023-11-08T21:21:08.865Z,9.83
2023-11-08T21:23:36.029Z,9.83
2023-11-08T21:26:03.568Z,9.82
2023-11-08T21:28:30.782Z,9.84
2023-11-08T21:30:57.998Z,9.85
2023-11-08T21:33:27.044Z,9.85
2023-11-08T21:35:54.259Z,9.86
2023-11-08T21:38:21.350Z,9.84
2023-11-08T21:40:48.831Z,9.83
2023-11-08T21:43:16.018Z,9.86
2023-11-08T21:45:45.313Z,9.87
2023-11-08T21:48:12.522Z,9.88
2023-11-08T21:50:39.658Z,9.90
2023-11-08T21:53:07.063Z,9.89
2023-11-08T21:55:34.285Z,9.86
2023-11-08T21:58:01.610Z,9.84
2023-11-08T22:00:28.927Z,9.83
2023-11-08T22:02:56.260Z,9.84
2023-11-08T22:05:23.877Z,9.82
2023-11-08T22:07:51.366Z,9.83
2023-11-08T22:10:20.188Z,9.82
2023-11-08T22:12:47.355Z,9.80
2023-11-08T22:15:15.175Z,9.76
2023-11-08T22:17:42.494Z,9.76
2023-11-08T22:20:12.256Z,9.76
2023-11-08T22:22:39.776Z,9.76
2023-11-08T22:25:07.333Z,9.74
2023-11-08T22:27:34.442Z,9.75
2023-11-08T22:30:01.558Z,9.76
2023-11-08T22:32:28.731Z,9.76
2023-11-08T22:34:55.878Z,9.78
2023-11-08T22:37:23.029Z,9.78
2023-11-08T22:39:50.581Z,9.79
2023-11-08T22:42:17.736Z,9.81
2023-11-08T22:44:44.985Z,9.82
2023-11-08T22:47:12.149Z,9.83
2023-11-08T22:49:41.399Z,9.82
2023-11-08T22:52:10.437Z,9.84
2023-11-08T22:54:40.447Z,9.82
2023-11-08T22:57:08.141Z,9.81
2023-11-08T22:59:35.310Z,9.82
2023-11-08T23:02:05.561Z,9.84
2023-11-08T23:04:32.790Z,9.84
2023-11-08T23:06:59.993Z,9.84
2023-11-08T23:09:28.054Z,9.83
2023-11-08T23:11:56.196Z,9.85
2023-11-08T23:14:23.286Z,9.86
2023-11-08T23:16:50.465Z,9.86
2023-11-08T23:19:18.373Z,9.88
2023-11-08T23:21:46.912Z,9.89
2023-11-08T23:24:14.158Z,9.88
2023-11-08T23:26:41.410Z,9.90
2023-11-08T23:29:09.840Z,9.92
2023-11-08T23:31:39.872Z,9.92
2023-11-08T23:34:07.180Z,9.93
2023-11-08T23:36:34.387Z,9.91
2023-11-08T23:39:01.636Z,9.93
2023-11-08T23:41:28.775Z,9.93
2023-11-08T23:43:56.033Z,9.93
2023-11-08T23:46:23.206Z,9.93
2023-11-08T23:48:51.107Z,9.95
2023-11-08T23:51:18.291Z,9.94
2023-11-08T23:53:45.460Z,9.93
2023-11-08T23:56:15.963Z,9.93
2023-11-08T23:58:43.514Z,9.91
